Los Corrales de Buelna, Spain
Current Conditions -  °F | °C
As of 2:30 PM on Wednesday 22 Oct 2014 (Local Time) from LEXJ Reporting Station
Few Clouds Few Clouds  
Wind Chill: 66°   Ceiling: Unl
Heat Index: 66°   Visibility: 6mi
Dew Point: 52°   Wind: 6mph
Humidity: 60%   Direction: 40°NE
Pressure: 30.45"   Gusts: NA
Location:  43.26°N, 4.07°W
Report Text: LEXJ 221230Z 04005KT 350V080 9999 FEW037 19/11 Q1031
Loading
Personal Weather Stations






























Interactive Weather Map
Tropical Storm Tracking
New forecast layout! Learn more

10-Day Weather Forecast

Advertisements
Track Severe Weather on mobile